メインページ
METAR-TAF:

METAR-TAF

空港 :

キャンベルリバー, ブリティッシュコロンビア州, カナダ

緯度: 49-57N, 経度: 125-16W, 海抜: 106m

現時点の気象観測

当レポートは1時間27分前の04:00(UTC)に作成
東/南東の風 6kt
気温 12°C
湿度 88%
気圧 1006 hPa
視程: 24.1km
高度600ftの雲は散在している
高度2000ftの雲は散在している
高度9000ftの曇り

METAR: CYBL 210400Z 11006KT 15SM SCT006 SCT020 OVC090 12/10 A2972 RMK SF3CU1AC4 LAST STFD OBS/NEXT 211300 UTC SLP067 DENSITY ALT 400FT

時間: 22:27 (05:27 UTC)

予報

当レポートは3時間18分前の02:09(UTC)に作成
予報は21日の 02時(UTC)から 21日の 04時(UTC)まで有効
東/南東の風 10kt、最大20ktの突風を伴う
視程: 10km
高度600ftの雲はほとんどない
高度2000ftの雲は散在している
高度10000ftの千切れ雲あり
21日の 02時(UTC)から 21日の 04時(UTC)まで一時的に
視程: 10km
高度600ftの雲は散在している
高度2000ftの千切れ雲あり
高度10000ftの曇り
弱いにわか雨

TAF: CYBL 210209Z 2102/2104 11010G20KT P6SM FEW006 SCT020 BKN100 TEMPO 2102/2104 P6SM -SHRA SCT006 BKN020 OVC100 RMK NXT FCST WILL BE ISSUED AT 211445Z

4,000以上の空港の気象観測と天気予報(METAR報とTAF報)

利用可能な観測所は地図上に黄色い丸と赤い丸で示す。

丸の上にカーソルを重ねると観測所名を参照できる。

次にクリックすると気象観測と天気予報を参照できる。

マップの切り替え:黒色「×」印の緑ボタンをクリックして拡大、「-」印の緑ボタンをクリックして縮小、緑色の三角印をクリックして隣りの地図に切り替え


METAR-TAF: